sensor_id;sensor_type;location;lat;lon;timestamp;P1;durP1;ratioP1;P2;durP2;ratioP2
60233;SDS011;49514;43.538;-5.708;2023-04-06T00:00:35;26.33;;;6.37;;
60233;SDS011;49514;43.538;-5.708;2023-04-06T00:03:02;16.00;;;5.47;;
60233;SDS011;49514;43.538;-5.708;2023-04-06T00:05:28;11.52;;;5.25;;
60233;SDS011;49514;43.538;-5.708;2023-04-06T00:07:59;12.77;;;4.70;;
60233;SDS011;49514;43.538;-5.708;2023-04-06T00:10:26;11.18;;;4.60;;
60233;SDS011;49514;43.538;-5.708;2023-04-06T00:12:53;11.10;;;4.72;;
60233;SDS011;49514;43.538;-5.708;2023-04-06T00:15:20;9.60;;;4.80;;
60233;SDS011;49514;43.538;-5.708;2023-04-06T00:17:47;11.05;;;4.80;;
60233;SDS011;49514;43.538;-5.708;2023-04-06T00:20:14;11.00;;;5.53;;
60233;SDS011;49514;43.538;-5.708;2023-04-06T00:22:42;9.80;;;4.80;;
60233;SDS011;49514;43.538;-5.708;2023-04-06T00:25:09;11.73;;;4.70;;
60233;SDS011;49514;43.538;-5.708;2023-04-06T00:27:37;7.95;;;4.60;;
60233;SDS011;49514;43.538;-5.708;2023-04-06T00:30:04;10.00;;;4.90;;
60233;SDS011;49514;43.538;-5.708;2023-04-06T00:32:32;8.68;;;4.35;;
60233;SDS011;49514;43.538;-5.708;2023-04-06T00:34:58;16.65;;;5.80;;
60233;SDS011;49514;43.538;-5.708;2023-04-06T00:37:25;13.18;;;6.50;;
60233;SDS011;49514;43.538;-5.708;2023-04-06T00:39:52;13.73;;;6.67;;
60233;SDS011;49514;43.538;-5.708;2023-04-06T00:42:18;19.55;;;7.68;;
60233;SDS011;49514;43.538;-5.708;2023-04-06T00:44:52;19.85;;;7.15;;
60233;SDS011;49514;43.538;-5.708;2023-04-06T00:47:23;20.05;;;7.70;;
60233;SDS011;49514;43.538;-5.708;2023-04-06T00:49:53;19.30;;;6.57;;
60233;SDS011;49514;43.538;-5.708;2023-04-06T00:52:20;15.98;;;6.60;;
60233;SDS011;49514;43.538;-5.708;2023-04-06T00:54:49;17.50;;;6.93;;
60233;SDS011;49514;43.538;-5.708;2023-04-06T00:57:18;16.45;;;6.70;;
60233;SDS011;49514;43.538;-5.708;2023-04-06T00:59:47;16.73;;;7.40;;
60233;SDS011;49514;43.538;-5.708;2023-04-06T01:02:14;26.33;;;7.83;;
60233;SDS011;49514;43.538;-5.708;2023-04-06T01:04:46;26.38;;;8.23;;
60233;SDS011;49514;43.538;-5.708;2023-04-06T01:07:22;30.10;;;8.88;;
60233;SDS011;49514;43.538;-5.708;2023-04-06T01:10:03;24.92;;;8.35;;
60233;SDS011;49514;43.538;-5.708;2023-04-06T01:12:32;34.92;;;9.55;;
60233;SDS011;49514;43.538;-5.708;2023-04-06T01:15:03;33.05;;;9.50;;
60233;SDS011;49514;43.538;-5.708;2023-04-06T01:17:33;36.10;;;9.45;;
60233;SDS011;49514;43.538;-5.708;2023-04-06T01:20:07;32.60;;;9.27;;
60233;SDS011;49514;43.538;-5.708;2023-04-06T01:22:34;29.92;;;8.43;;
60233;SDS011;49514;43.538;-5.708;2023-04-06T01:25:03;30.87;;;8.93;;
60233;SDS011;49514;43.538;-5.708;2023-04-06T01:27:52;24.75;;;7.78;;
60233;SDS011;49514;43.538;-5.708;2023-04-06T01:30:39;31.85;;;9.02;;
60233;SDS011;49514;43.538;-5.708;2023-04-06T01:33:20;26.00;;;9.15;;
60233;SDS011;49514;43.538;-5.708;2023-04-06T01:36:03;25.40;;;8.67;;
60233;SDS011;49514;43.538;-5.708;2023-04-06T01:38:30;24.00;;;8.25;;
60233;SDS011;49514;43.538;-5.708;2023-04-06T01:40:57;25.58;;;9.10;;
60233;SDS011;49514;43.538;-5.708;2023-04-06T01:43:26;24.55;;;8.80;;
60233;SDS011;49514;43.538;-5.708;2023-04-06T01:46:01;21.73;;;8.68;;
60233;SDS011;49514;43.538;-5.708;2023-04-06T01:48:33;35.83;;;9.25;;
60233;SDS011;49514;43.538;-5.708;2023-04-06T01:51:05;43.67;;;11.20;;
60233;SDS011;49514;43.538;-5.708;2023-04-06T01:53:36;53.67;;;11.18;;
60233;SDS011;49514;43.538;-5.708;2023-04-06T01:56:05;50.83;;;10.05;;
60233;SDS011;49514;43.538;-5.708;2023-04-06T01:58:37;40.58;;;10.25;;
60233;SDS011;49514;43.538;-5.708;2023-04-06T02:01:04;40.67;;;9.80;;
60233;SDS011;49514;43.538;-5.708;2023-04-06T02:03:42;32.10;;;8.80;;
60233;SDS011;49514;43.538;-5.708;2023-04-06T02:06:10;33.22;;;8.85;;
60233;SDS011;49514;43.538;-5.708;2023-04-06T02:08:39;40.80;;;9.70;;
60233;SDS011;49514;43.538;-5.708;2023-04-06T02:11:06;33.83;;;9.35;;
60233;SDS011;49514;43.538;-5.708;2023-04-06T02:13:39;30.67;;;9.07;;
60233;SDS011;49514;43.538;-5.708;2023-04-06T02:16:06;27.67;;;8.10;;
60233;SDS011;49514;43.538;-5.708;2023-04-06T02:18:33;21.80;;;7.43;;
60233;SDS011;49514;43.538;-5.708;2023-04-06T02:20:59;15.40;;;6.40;;
60233;SDS011;49514;43.538;-5.708;2023-04-06T02:23:26;17.20;;;6.50;;
60233;SDS011;49514;43.538;-5.708;2023-04-06T02:25:53;20.43;;;7.60;;
60233;SDS011;49514;43.538;-5.708;2023-04-06T02:28:20;22.25;;;7.43;;
60233;SDS011;49514;43.538;-5.708;2023-04-06T02:30:46;17.85;;;6.72;;
60233;SDS011;49514;43.538;-5.708;2023-04-06T02:33:13;9.60;;;4.55;;
60233;SDS011;49514;43.538;-5.708;2023-04-06T02:35:46;7.43;;;4.07;;
60233;SDS011;49514;43.538;-5.708;2023-04-06T02:38:12;7.63;;;4.35;;
60233;SDS011;49514;43.538;-5.708;2023-04-06T02:40:39;5.85;;;4.13;;
60233;SDS011;49514;43.538;-5.708;2023-04-06T02:43:18;9.02;;;4.28;;
60233;SDS011;49514;43.538;-5.708;2023-04-06T02:45:45;8.82;;;4.72;;
60233;SDS011;49514;43.538;-5.708;2023-04-06T02:48:13;9.02;;;4.70;;
60233;SDS011;49514;43.538;-5.708;2023-04-06T02:50:40;20.42;;;7.95;;
60233;SDS011;49514;43.538;-5.708;2023-04-06T02:53:07;17.75;;;6.18;;
60233;SDS011;49514;43.538;-5.708;2023-04-06T03:23:48;14.52;;;7.50;;
60233;SDS011;49514;43.538;-5.708;2023-04-06T03:26:17;15.00;;;7.82;;
60233;SDS011;49514;43.538;-5.708;2023-04-06T03:28:44;18.70;;;9.38;;
60233;SDS011;49514;43.538;-5.708;2023-04-06T03:31:11;21.92;;;9.73;;
60233;SDS011;49514;43.538;-5.708;2023-04-06T05:00:48;23.40;;;8.88;;
60233;SDS011;49514;43.538;-5.708;2023-04-06T05:03:20;25.57;;;12.47;;
60233;SDS011;49514;43.538;-5.708;2023-04-06T05:05:56;24.45;;;11.85;;
60233;SDS011;49514;43.538;-5.708;2023-04-06T05:08:25;21.43;;;12.00;;
60233;SDS011;49514;43.538;-5.708;2023-04-06T05:10:52;21.95;;;10.27;;
60233;SDS011;49514;43.538;-5.708;2023-04-06T05:13:20;19.60;;;9.73;;
60233;SDS011;49514;43.538;-5.708;2023-04-06T05:15:48;20.27;;;8.93;;
60233;SDS011;49514;43.538;-5.708;2023-04-06T05:18:23;20.80;;;8.18;;
60233;SDS011;49514;43.538;-5.708;2023-04-06T05:20:50;19.05;;;8.57;;
60233;SDS011;49514;43.538;-5.708;2023-04-06T05:23:20;17.98;;;8.70;;
60233;SDS011;49514;43.538;-5.708;2023-04-06T05:25:47;20.55;;;8.75;;
60233;SDS011;49514;43.538;-5.708;2023-04-06T05:28:19;22.90;;;9.52;;
60233;SDS011;49514;43.538;-5.708;2023-04-06T05:30:46;22.77;;;9.48;;
60233;SDS011;49514;43.538;-5.708;2023-04-06T05:33:14;21.55;;;10.13;;
60233;SDS011;49514;43.538;-5.708;2023-04-06T05:36:00;23.38;;;9.80;;
60233;SDS011;49514;43.538;-5.708;2023-04-06T05:38:27;19.35;;;9.85;;
60233;SDS011;49514;43.538;-5.708;2023-04-06T05:40:57;27.17;;;10.43;;
60233;SDS011;49514;43.538;-5.708;2023-04-06T05:43:27;35.83;;;10.85;;
60233;SDS011;49514;43.538;-5.708;2023-04-06T05:45:57;38.42;;;10.90;;
60233;SDS011;49514;43.538;-5.708;2023-04-06T05:48:23;29.75;;;11.80;;
60233;SDS011;49514;43.538;-5.708;2023-04-06T05:50:50;44.80;;;13.07;;
60233;SDS011;49514;43.538;-5.708;2023-04-06T05:53:21;30.60;;;11.35;;
60233;SDS011;49514;43.538;-5.708;2023-04-06T05:55:53;35.17;;;11.52;;
60233;SDS011;49514;43.538;-5.708;2023-04-06T05:58:21;44.35;;;10.82;;
60233;SDS011;49514;43.538;-5.708;2023-04-06T06:00:50;29.27;;;11.48;;
60233;SDS011;49514;43.538;-5.708;2023-04-06T06:03:20;29.80;;;12.05;;
60233;SDS011;49514;43.538;-5.708;2023-04-06T06:05:52;42.45;;;13.95;;
60233;SDS011;49514;43.538;-5.708;2023-04-06T06:08:27;27.63;;;13.30;;
60233;SDS011;49514;43.538;-5.708;2023-04-06T06:10:55;23.13;;;12.07;;
60233;SDS011;49514;43.538;-5.708;2023-04-06T06:13:23;26.05;;;12.98;;
60233;SDS011;49514;43.538;-5.708;2023-04-06T06:15:51;23.55;;;12.50;;
60233;SDS011;49514;43.538;-5.708;2023-04-06T06:18:19;18.58;;;11.05;;
60233;SDS011;49514;43.538;-5.708;2023-04-06T06:20:49;21.10;;;11.05;;
60233;SDS011;49514;43.538;-5.708;2023-04-06T06:23:16;24.02;;;11.73;;
60233;SDS011;49514;43.538;-5.708;2023-04-06T06:25:43;18.08;;;10.15;;
60233;SDS011;49514;43.538;-5.708;2023-04-06T06:28:10;27.77;;;10.88;;
60233;SDS011;49514;43.538;-5.708;2023-04-06T06:30:37;25.20;;;10.48;;
60233;SDS011;49514;43.538;-5.708;2023-04-06T06:33:04;17.85;;;10.32;;
60233;SDS011;49514;43.538;-5.708;2023-04-06T06:35:31;18.98;;;10.23;;
60233;SDS011;49514;43.538;-5.708;2023-04-06T06:38:02;20.80;;;10.02;;
60233;SDS011;49514;43.538;-5.708;2023-04-06T06:40:28;21.63;;;11.20;;
60233;SDS011;49514;43.538;-5.708;2023-04-06T06:42:55;28.77;;;12.10;;
60233;SDS011;49514;43.538;-5.708;2023-04-06T06:45:46;27.00;;;11.43;;
60233;SDS011;49514;43.538;-5.708;2023-04-06T06:48:13;26.45;;;12.00;;
60233;SDS011;49514;43.538;-5.708;2023-04-06T06:50:40;21.30;;;11.00;;
60233;SDS011;49514;43.538;-5.708;2023-04-06T06:53:06;22.80;;;11.32;;
60233;SDS011;49514;43.538;-5.708;2023-04-06T06:55:34;22.10;;;12.18;;
60233;SDS011;49514;43.538;-5.708;2023-04-06T06:58:00;24.92;;;12.52;;
60233;SDS011;49514;43.538;-5.708;2023-04-06T07:00:27;26.65;;;11.55;;
60233;SDS011;49514;43.538;-5.708;2023-04-06T07:02:54;34.45;;;15.98;;
60233;SDS011;49514;43.538;-5.708;2023-04-06T07:05:21;25.85;;;14.90;;
60233;SDS011;49514;43.538;-5.708;2023-04-06T07:07:47;24.45;;;14.18;;
60233;SDS011;49514;43.538;-5.708;2023-04-06T07:10:14;29.48;;;15.18;;
60233;SDS011;49514;43.538;-5.708;2023-04-06T07:12:41;25.73;;;14.00;;
60233;SDS011;49514;43.538;-5.708;2023-04-06T07:15:08;23.88;;;13.20;;
60233;SDS011;49514;43.538;-5.708;2023-04-06T07:17:35;23.05;;;12.10;;
60233;SDS011;49514;43.538;-5.708;2023-04-06T07:20:02;23.17;;;11.73;;
60233;SDS011;49514;43.538;-5.708;2023-04-06T07:22:30;21.80;;;11.45;;
60233;SDS011;49514;43.538;-5.708;2023-04-06T07:24:57;23.52;;;11.57;;
60233;SDS011;49514;43.538;-5.708;2023-04-06T07:27:24;15.38;;;9.13;;
60233;SDS011;49514;43.538;-5.708;2023-04-06T07:29:51;14.60;;;9.80;;
60233;SDS011;49514;43.538;-5.708;2023-04-06T07:32:17;14.70;;;9.45;;
60233;SDS011;49514;43.538;-5.708;2023-04-06T07:34:44;16.37;;;9.93;;
60233;SDS011;49514;43.538;-5.708;2023-04-06T07:37:11;20.35;;;10.50;;
60233;SDS011;49514;43.538;-5.708;2023-04-06T07:39:38;18.00;;;9.57;;
60233;SDS011;49514;43.538;-5.708;2023-04-06T07:42:06;20.92;;;10.60;;
60233;SDS011;49514;43.538;-5.708;2023-04-06T07:44:33;18.27;;;10.55;;
60233;SDS011;49514;43.538;-5.708;2023-04-06T07:47:00;20.20;;;10.93;;
60233;SDS011;49514;43.538;-5.708;2023-04-06T07:49:28;16.95;;;9.70;;
60233;SDS011;49514;43.538;-5.708;2023-04-06T07:51:56;17.60;;;8.98;;
60233;SDS011;49514;43.538;-5.708;2023-04-06T07:54:23;14.38;;;8.35;;
60233;SDS011;49514;43.538;-5.708;2023-04-06T07:56:49;13.32;;;8.27;;
60233;SDS011;49514;43.538;-5.708;2023-04-06T07:59:16;15.55;;;9.02;;
60233;SDS011;49514;43.538;-5.708;2023-04-06T08:01:43;14.07;;;7.90;;
60233;SDS011;49514;43.538;-5.708;2023-04-06T08:04:10;13.98;;;8.60;;
60233;SDS011;49514;43.538;-5.708;2023-04-06T08:06:37;15.40;;;7.97;;
60233;SDS011;49514;43.538;-5.708;2023-04-06T08:09:04;18.77;;;7.80;;
60233;SDS011;49514;43.538;-5.708;2023-04-06T08:11:30;15.45;;;7.47;;
60233;SDS011;49514;43.538;-5.708;2023-04-06T08:13:57;16.25;;;7.60;;
60233;SDS011;49514;43.538;-5.708;2023-04-06T08:16:24;14.05;;;6.88;;
60233;SDS011;49514;43.538;-5.708;2023-04-06T08:18:51;14.07;;;7.15;;
60233;SDS011;49514;43.538;-5.708;2023-04-06T08:21:18;17.08;;;7.78;;
60233;SDS011;49514;43.538;-5.708;2023-04-06T08:23:45;16.80;;;7.50;;
60233;SDS011;49514;43.538;-5.708;2023-04-06T08:26:12;14.93;;;7.55;;
60233;SDS011;49514;43.538;-5.708;2023-04-06T08:28:38;21.65;;;9.45;;
60233;SDS011;49514;43.538;-5.708;2023-04-06T08:31:05;20.85;;;7.68;;
60233;SDS011;49514;43.538;-5.708;2023-04-06T08:33:32;17.20;;;7.80;;
60233;SDS011;49514;43.538;-5.708;2023-04-06T08:36:12;16.73;;;8.13;;
60233;SDS011;49514;43.538;-5.708;2023-04-06T08:38:40;17.77;;;8.35;;
60233;SDS011;49514;43.538;-5.708;2023-04-06T08:43:43;16.02;;;7.60;;
60233;SDS011;49514;43.538;-5.708;2023-04-06T08:46:12;12.90;;;7.35;;
60233;SDS011;49514;43.538;-5.708;2023-04-06T08:48:40;11.52;;;6.00;;
60233;SDS011;49514;43.538;-5.708;2023-04-06T08:51:11;10.45;;;5.82;;
60233;SDS011;49514;43.538;-5.708;2023-04-06T08:53:38;12.00;;;5.65;;
60233;SDS011;49514;43.538;-5.708;2023-04-06T08:56:04;9.73;;;5.25;;
60233;SDS011;49514;43.538;-5.708;2023-04-06T08:58:34;10.27;;;5.45;;
60233;SDS011;49514;43.538;-5.708;2023-04-06T09:01:05;8.48;;;4.78;;
60233;SDS011;49514;43.538;-5.708;2023-04-06T09:03:39;9.90;;;4.65;;
60233;SDS011;49514;43.538;-5.708;2023-04-06T09:06:06;10.38;;;4.90;;
60233;SDS011;49514;43.538;-5.708;2023-04-06T09:08:34;9.52;;;4.38;;
60233;SDS011;49514;43.538;-5.708;2023-04-06T09:11:03;8.33;;;3.97;;
60233;SDS011;49514;43.538;-5.708;2023-04-06T09:13:30;8.00;;;4.05;;
60233;SDS011;49514;43.538;-5.708;2023-04-06T09:15:58;14.55;;;3.83;;
60233;SDS011;49514;43.538;-5.708;2023-04-06T09:18:32;8.18;;;3.55;;
60233;SDS011;49514;43.538;-5.708;2023-04-06T09:21:00;6.57;;;3.60;;
60233;SDS011;49514;43.538;-5.708;2023-04-06T09:23:28;7.37;;;3.50;;
60233;SDS011;49514;43.538;-5.708;2023-04-06T09:26:14;6.28;;;3.50;;
60233;SDS011;49514;43.538;-5.708;2023-04-06T09:28:47;6.35;;;3.63;;
60233;SDS011;49514;43.538;-5.708;2023-04-06T09:31:17;6.60;;;3.60;;
60233;SDS011;49514;43.538;-5.708;2023-04-06T09:33:51;5.80;;;3.60;;
60233;SDS011;49514;43.538;-5.708;2023-04-06T09:36:19;6.57;;;3.87;;
60233;SDS011;49514;43.538;-5.708;2023-04-06T09:43:50;7.18;;;3.40;;
60233;SDS011;49514;43.538;-5.708;2023-04-06T09:46:41;7.87;;;3.60;;
60233;SDS011;49514;43.538;-5.708;2023-04-06T09:49:09;8.20;;;3.50;;
60233;SDS011;49514;43.538;-5.708;2023-04-06T09:51:38;6.28;;;3.42;;
60233;SDS011;49514;43.538;-5.708;2023-04-06T09:54:22;8.70;;;3.80;;
60233;SDS011;49514;43.538;-5.708;2023-04-06T09:59:41;6.15;;;3.15;;
60233;SDS011;49514;43.538;-5.708;2023-04-06T10:07:30;7.18;;;3.50;;
60233;SDS011;49514;43.538;-5.708;2023-04-06T10:09:58;6.63;;;3.60;;
60233;SDS011;49514;43.538;-5.708;2023-04-06T10:12:26;8.40;;;3.70;;
60233;SDS011;49514;43.538;-5.708;2023-04-06T10:14:53;9.73;;;4.07;;
60233;SDS011;49514;43.538;-5.708;2023-04-06T10:17:20;10.20;;;4.00;;
60233;SDS011;49514;43.538;-5.708;2023-04-06T10:19:52;9.38;;;4.47;;
60233;SDS011;49514;43.538;-5.708;2023-04-06T10:22:39;8.85;;;4.57;;
60233;SDS011;49514;43.538;-5.708;2023-04-06T10:25:26;10.10;;;4.47;;
60233;SDS011;49514;43.538;-5.708;2023-04-06T10:28:07;10.40;;;4.15;;
60233;SDS011;49514;43.538;-5.708;2023-04-06T10:30:37;9.07;;;4.07;;
60233;SDS011;49514;43.538;-5.708;2023-04-06T10:33:15;7.35;;;3.83;;
60233;SDS011;49514;43.538;-5.708;2023-04-06T10:35:46;8.55;;;4.00;;
60233;SDS011;49514;43.538;-5.708;2023-04-06T10:38:12;10.32;;;4.30;;
60233;SDS011;49514;43.538;-5.708;2023-04-06T10:40:40;7.57;;;3.63;;
60233;SDS011;49514;43.538;-5.708;2023-04-06T10:45:39;4.70;;;2.90;;
60233;SDS011;49514;43.538;-5.708;2023-04-06T10:48:13;6.17;;;3.00;;
60233;SDS011;49514;43.538;-5.708;2023-04-06T10:50:42;6.38;;;2.90;;
60233;SDS011;49514;43.538;-5.708;2023-04-06T10:53:24;7.45;;;3.50;;
60233;SDS011;49514;43.538;-5.708;2023-04-06T10:55:55;8.55;;;2.80;;
60233;SDS011;49514;43.538;-5.708;2023-04-06T10:58:26;7.07;;;2.80;;
60233;SDS011;49514;43.538;-5.708;2023-04-06T11:00:53;6.43;;;2.70;;
60233;SDS011;49514;43.538;-5.708;2023-04-06T11:03:25;7.40;;;2.90;;
60233;SDS011;49514;43.538;-5.708;2023-04-06T11:05:53;6.87;;;3.07;;
60233;SDS011;49514;43.538;-5.708;2023-04-06T11:08:26;8.47;;;2.80;;
60233;SDS011;49514;43.538;-5.708;2023-04-06T11:11:15;7.05;;;2.90;;
60233;SDS011;49514;43.538;-5.708;2023-04-06T11:16:17;6.88;;;2.97;;
60233;SDS011;49514;43.538;-5.708;2023-04-06T11:21:19;6.70;;;2.60;;
60233;SDS011;49514;43.538;-5.708;2023-04-06T11:24:03;6.47;;;2.55;;
60233;SDS011;49514;43.538;-5.708;2023-04-06T11:29:20;5.40;;;2.33;;
60233;SDS011;49514;43.538;-5.708;2023-04-06T11:31:49;4.68;;;2.42;;
60233;SDS011;49514;43.538;-5.708;2023-04-06T11:34:28;5.88;;;2.30;;
60233;SDS011;49514;43.538;-5.708;2023-04-06T11:36:57;7.38;;;2.58;;
60233;SDS011;49514;43.538;-5.708;2023-04-06T11:39:26;4.57;;;2.38;;
60233;SDS011;49514;43.538;-5.708;2023-04-06T11:42:00;6.07;;;2.08;;
60233;SDS011;49514;43.538;-5.708;2023-04-06T11:44:40;6.57;;;2.40;;
60233;SDS011;49514;43.538;-5.708;2023-04-06T11:47:10;5.50;;;2.20;;
60233;SDS011;49514;43.538;-5.708;2023-04-06T11:49:41;6.25;;;2.42;;
60233;SDS011;49514;43.538;-5.708;2023-04-06T11:52:19;5.28;;;2.30;;
60233;SDS011;49514;43.538;-5.708;2023-04-06T11:54:46;5.03;;;2.17;;
60233;SDS011;49514;43.538;-5.708;2023-04-06T11:57:14;6.20;;;2.22;;
60233;SDS011;49514;43.538;-5.708;2023-04-06T11:59:43;6.13;;;2.30;;
60233;SDS011;49514;43.538;-5.708;2023-04-06T12:02:10;6.60;;;2.40;;
60233;SDS011;49514;43.538;-5.708;2023-04-06T12:04:37;4.93;;;2.63;;
60233;SDS011;49514;43.538;-5.708;2023-04-06T12:07:04;4.80;;;2.33;;
60233;SDS011;49514;43.538;-5.708;2023-04-06T12:09:31;7.25;;;2.33;;
60233;SDS011;49514;43.538;-5.708;2023-04-06T12:11:58;5.53;;;2.08;;
60233;SDS011;49514;43.538;-5.708;2023-04-06T12:14:25;6.30;;;2.08;;
60233;SDS011;49514;43.538;-5.708;2023-04-06T12:16:51;7.28;;;2.40;;
60233;SDS011;49514;43.538;-5.708;2023-04-06T12:19:18;6.97;;;2.13;;
60233;SDS011;49514;43.538;-5.708;2023-04-06T12:21:45;5.60;;;2.10;;
60233;SDS011;49514;43.538;-5.708;2023-04-06T12:24:12;4.25;;;1.90;;
60233;SDS011;49514;43.538;-5.708;2023-04-06T12:26:39;5.80;;;2.13;;
60233;SDS011;49514;43.538;-5.708;2023-04-06T12:29:07;5.88;;;2.22;;
60233;SDS011;49514;43.538;-5.708;2023-04-06T12:31:35;4.65;;;2.13;;
60233;SDS011;49514;43.538;-5.708;2023-04-06T12:34:02;6.50;;;1.80;;
60233;SDS011;49514;43.538;-5.708;2023-04-06T12:36:30;4.18;;;1.83;;
60233;SDS011;49514;43.538;-5.708;2023-04-06T12:38:57;4.70;;;1.80;;
60233;SDS011;49514;43.538;-5.708;2023-04-06T12:41:24;4.88;;;1.88;;
60233;SDS011;49514;43.538;-5.708;2023-04-06T12:43:50;8.35;;;2.00;;
60233;SDS011;49514;43.538;-5.708;2023-04-06T12:46:17;4.53;;;1.80;;
60233;SDS011;49514;43.538;-5.708;2023-04-06T12:48:44;4.95;;;2.08;;
60233;SDS011;49514;43.538;-5.708;2023-04-06T12:51:11;5.80;;;1.92;;
60233;SDS011;49514;43.538;-5.708;2023-04-06T12:53:38;5.20;;;1.90;;
60233;SDS011;49514;43.538;-5.708;2023-04-06T12:56:11;7.22;;;1.90;;
60233;SDS011;49514;43.538;-5.708;2023-04-06T12:58:43;5.28;;;1.90;;
60233;SDS011;49514;43.538;-5.708;2023-04-06T13:01:12;4.97;;;1.70;;
60233;SDS011;49514;43.538;-5.708;2023-04-06T13:03:39;5.72;;;1.88;;
60233;SDS011;49514;43.538;-5.708;2023-04-06T13:06:06;4.05;;;1.90;;
60233;SDS011;49514;43.538;-5.708;2023-04-06T13:08:37;4.30;;;2.00;;
60233;SDS011;49514;43.538;-5.708;2023-04-06T13:11:05;6.10;;;1.90;;
60233;SDS011;49514;43.538;-5.708;2023-04-06T13:13:36;5.73;;;2.13;;
60233;SDS011;49514;43.538;-5.708;2023-04-06T13:16:04;4.37;;;1.90;;
60233;SDS011;49514;43.538;-5.708;2023-04-06T13:18:36;4.03;;;1.70;;
60233;SDS011;49514;43.538;-5.708;2023-04-06T13:21:04;3.45;;;1.58;;
60233;SDS011;49514;43.538;-5.708;2023-04-06T13:23:32;4.93;;;1.90;;
60233;SDS011;49514;43.538;-5.708;2023-04-06T13:26:00;3.90;;;1.80;;
60233;SDS011;49514;43.538;-5.708;2023-04-06T13:28:31;4.63;;;1.83;;
60233;SDS011;49514;43.538;-5.708;2023-04-06T13:31:00;6.93;;;1.95;;
60233;SDS011;49514;43.538;-5.708;2023-04-06T13:58:07;6.38;;;1.63;;
60233;SDS011;49514;43.538;-5.708;2023-04-06T14:00:34;2.75;;;1.52;;
60233;SDS011;49514;43.538;-5.708;2023-04-06T14:03:01;2.88;;;1.20;;
60233;SDS011;49514;43.538;-5.708;2023-04-06T14:05:31;5.38;;;1.38;;
60233;SDS011;49514;43.538;-5.708;2023-04-06T14:08:00;2.95;;;1.45;;
60233;SDS011;49514;43.538;-5.708;2023-04-06T14:10:28;3.72;;;1.60;;
60233;SDS011;49514;43.538;-5.708;2023-04-06T14:12:54;3.38;;;1.30;;
60233;SDS011;49514;43.538;-5.708;2023-04-06T14:15:21;2.35;;;1.17;;
60233;SDS011;49514;43.538;-5.708;2023-04-06T14:17:48;2.20;;;1.17;;
60233;SDS011;49514;43.538;-5.708;2023-04-06T14:20:16;4.55;;;0.90;;
60233;SDS011;49514;43.538;-5.708;2023-04-06T14:22:42;2.67;;;0.95;;
60233;SDS011;49514;43.538;-5.708;2023-04-06T14:30:03;2.55;;;0.95;;
60233;SDS011;49514;43.538;-5.708;2023-04-06T14:32:30;1.45;;;0.77;;
60233;SDS011;49514;43.538;-5.708;2023-04-06T14:34:58;4.05;;;0.90;;
60233;SDS011;49514;43.538;-5.708;2023-04-06T14:49:41;3.80;;;0.90;;
60233;SDS011;49514;43.538;-5.708;2023-04-06T14:52:07;3.65;;;0.93;;
60233;SDS011;49514;43.538;-5.708;2023-04-06T15:04:20;1.52;;;0.82;;
60233;SDS011;49514;43.538;-5.708;2023-04-06T15:06:47;2.03;;;0.90;;
60233;SDS011;49514;43.538;-5.708;2023-04-06T15:09:13;1.83;;;0.95;;
60233;SDS011;49514;43.538;-5.708;2023-04-06T15:11:40;3.15;;;0.77;;
60233;SDS011;49514;43.538;-5.708;2023-04-06T15:19:01;2.58;;;1.00;;
60233;SDS011;49514;43.538;-5.708;2023-04-06T15:21:27;1.58;;;0.90;;
60233;SDS011;49514;43.538;-5.708;2023-04-06T15:23:54;3.03;;;0.90;;
60233;SDS011;49514;43.538;-5.708;2023-04-06T15:26:21;2.10;;;0.82;;
60233;SDS011;49514;43.538;-5.708;2023-04-06T15:28:48;1.80;;;0.80;;
60233;SDS011;49514;43.538;-5.708;2023-04-06T15:31:17;1.67;;;0.70;;
60233;SDS011;49514;43.538;-5.708;2023-04-06T15:33:46;2.70;;;1.10;;
60233;SDS011;49514;43.538;-5.708;2023-04-06T15:36:23;2.08;;;1.00;;
60233;SDS011;49514;43.538;-5.708;2023-04-06T15:38:56;2.17;;;0.90;;
60233;SDS011;49514;43.538;-5.708;2023-04-06T15:41:24;2.25;;;0.93;;
60233;SDS011;49514;43.538;-5.708;2023-04-06T15:43:54;2.80;;;0.93;;
60233;SDS011;49514;43.538;-5.708;2023-04-06T15:46:21;2.78;;;1.00;;
60233;SDS011;49514;43.538;-5.708;2023-04-06T15:48:48;3.75;;;0.82;;
60233;SDS011;49514;43.538;-5.708;2023-04-06T17:02:22;1.98;;;0.80;;
60233;SDS011;49514;43.538;-5.708;2023-04-06T17:24:21;2.45;;;0.73;;
60233;SDS011;49514;43.538;-5.708;2023-04-06T17:29:16;4.03;;;1.00;;
60233;SDS011;49514;43.538;-5.708;2023-04-06T17:31:43;2.28;;;0.70;;
60233;SDS011;49514;43.538;-5.708;2023-04-06T17:34:11;4.10;;;0.90;;
60233;SDS011;49514;43.538;-5.708;2023-04-06T17:36:38;1.58;;;1.00;;
60233;SDS011;49514;43.538;-5.708;2023-04-06T17:39:05;2.10;;;0.93;;
60233;SDS011;49514;43.538;-5.708;2023-04-06T17:41:31;2.08;;;1.00;;
60233;SDS011;49514;43.538;-5.708;2023-04-06T17:44:02;1.90;;;0.82;;
60233;SDS011;49514;43.538;-5.708;2023-04-06T17:46:29;3.20;;;0.90;;
60233;SDS011;49514;43.538;-5.708;2023-04-06T17:48:56;1.70;;;0.75;;
60233;SDS011;49514;43.538;-5.708;2023-04-06T17:51:22;4.20;;;0.90;;
60233;SDS011;49514;43.538;-5.708;2023-04-06T17:53:50;1.65;;;1.00;;
60233;SDS011;49514;43.538;-5.708;2023-04-06T17:56:17;4.43;;;0.88;;
60233;SDS011;49514;43.538;-5.708;2023-04-06T17:58:44;1.80;;;0.90;;
60233;SDS011;49514;43.538;-5.708;2023-04-06T18:01:10;3.17;;;0.90;;
60233;SDS011;49514;43.538;-5.708;2023-04-06T18:03:37;3.47;;;1.10;;
60233;SDS011;49514;43.538;-5.708;2023-04-06T18:06:10;2.88;;;1.23;;
60233;SDS011;49514;43.538;-5.708;2023-04-06T18:08:40;2.05;;;0.80;;
60233;SDS011;49514;43.538;-5.708;2023-04-06T18:11:15;2.55;;;0.98;;
60233;SDS011;49514;43.538;-5.708;2023-04-06T18:13:43;2.63;;;1.15;;
60233;SDS011;49514;43.538;-5.708;2023-04-06T18:16:10;4.57;;;1.00;;
60233;SDS011;49514;43.538;-5.708;2023-04-06T18:18:37;3.08;;;1.10;;
60233;SDS011;49514;43.538;-5.708;2023-04-06T18:21:04;2.05;;;0.98;;
60233;SDS011;49514;43.538;-5.708;2023-04-06T18:23:34;3.47;;;1.25;;
60233;SDS011;49514;43.538;-5.708;2023-04-06T18:26:02;4.72;;;1.40;;
60233;SDS011;49514;43.538;-5.708;2023-04-06T18:28:29;4.05;;;1.33;;
60233;SDS011;49514;43.538;-5.708;2023-04-06T18:30:57;2.58;;;1.05;;
60233;SDS011;49514;43.538;-5.708;2023-04-06T18:33:24;4.53;;;1.05;;
60233;SDS011;49514;43.538;-5.708;2023-04-06T18:35:54;3.38;;;1.08;;
60233;SDS011;49514;43.538;-5.708;2023-04-06T18:38:21;4.85;;;1.30;;
60233;SDS011;49514;43.538;-5.708;2023-04-06T18:40:48;2.97;;;0.93;;
60233;SDS011;49514;43.538;-5.708;2023-04-06T18:43:16;1.58;;;0.90;;
60233;SDS011;49514;43.538;-5.708;2023-04-06T18:45:43;4.28;;;1.35;;
60233;SDS011;49514;43.538;-5.708;2023-04-06T18:48:10;2.70;;;0.98;;
60233;SDS011;49514;43.538;-5.708;2023-04-06T18:50:38;5.22;;;1.50;;
60233;SDS011;49514;43.538;-5.708;2023-04-06T18:53:05;3.40;;;1.13;;
60233;SDS011;49514;43.538;-5.708;2023-04-06T18:55:34;6.85;;;1.15;;
60233;SDS011;49514;43.538;-5.708;2023-04-06T18:58:01;1.40;;;0.82;;
60233;SDS011;49514;43.538;-5.708;2023-04-06T19:00:27;2.40;;;1.08;;
60233;SDS011;49514;43.538;-5.708;2023-04-06T19:02:54;2.20;;;1.10;;
60233;SDS011;49514;43.538;-5.708;2023-04-06T19:05:21;4.05;;;1.50;;
60233;SDS011;49514;43.538;-5.708;2023-04-06T19:07:47;3.83;;;1.60;;
60233;SDS011;49514;43.538;-5.708;2023-04-06T19:10:17;3.55;;;1.30;;
60233;SDS011;49514;43.538;-5.708;2023-04-06T19:12:44;4.43;;;1.25;;
60233;SDS011;49514;43.538;-5.708;2023-04-06T19:15:11;2.03;;;1.10;;
60233;SDS011;49514;43.538;-5.708;2023-04-06T19:17:38;5.53;;;1.15;;
60233;SDS011;49514;43.538;-5.708;2023-04-06T19:20:05;5.70;;;1.38;;
60233;SDS011;49514;43.538;-5.708;2023-04-06T19:22:36;7.72;;;1.70;;
60233;SDS011;49514;43.538;-5.708;2023-04-06T19:25:03;5.80;;;1.52;;
60233;SDS011;49514;43.538;-5.708;2023-04-06T19:27:30;7.00;;;1.60;;